Time;durP1;ratioP1;P1;durP2;ratioP2;P2;SDS_P1;SDS_P2;PMS_P1;PMS_P2;Temp;Humidity;BMP_temperature;BMP_pressure;BME280_temperature;BME280_humidity;BME280_pressure;Samples;Min_cycle;Max_cycle;Signal;HPM_P1;HPM_P2
2020/12/21 00:00:11;;;;;;;17.32;9.98;;;;;;;3.99;67.93;98264.63;1754143;81;21109;-79
2020/12/21 00:02:48;;;;;;;17.25;9.68;;;;;;;3.99;67.85;98264.63;1686422;84;21129;-79
2020/12/21 00:05:15;;;;;;;17.70;9.93;;;;;;;3.97;67.94;98271.66;1681932;85;21140;-77
2020/12/21 00:07:43;;;;;;;22.67;10.05;;;;;;;3.96;67.80;98274.33;1709652;83;21120;-79
2020/12/21 00:10:11;;;;;;;18.48;11.00;;;;;;;3.93;67.72;98277.91;1760973;81;21586;-78
2020/12/21 00:12:38;;;;;;;18.90;10.15;;;;;;;3.93;67.78;98280.52;1707272;84;21168;-79
2020/12/21 00:15:07;;;;;;;16.52;10.08;;;;;;;3.91;67.71;98277.09;1746492;80;21559;-79
2020/12/21 00:17:35;;;;;;;19.10;9.90;;;;;;;3.89;67.59;98277.59;1743049;82;21522;-78
2020/12/21 00:20:04;;;;;;;17.27;9.43;;;;;;;3.88;67.77;98279.80;1742991;82;21170;-79
2020/12/21 00:22:31;;;;;;;16.45;9.23;;;;;;;3.86;67.81;98275.95;1743069;82;21121;-77
2020/12/21 00:24:59;;;;;;;20.08;9.30;;;;;;;3.89;67.86;98277.59;1679090;85;21139;-78
2020/12/21 00:27:26;;;;;;;17.20;9.23;;;;;;;3.87;67.78;98279.39;1682051;85;21208;-79
2020/12/21 00:29:53;;;;;;;18.07;9.90;;;;;;;3.82;67.75;98273.03;1707387;83;21153;-78
2020/12/21 00:32:21;;;;;;;20.40;10.30;;;;;;;3.83;67.79;98272.59;1707066;83;21177;-78
2020/12/21 00:34:49;;;;;;;19.73;10.55;;;;;;;3.82;67.74;98275.64;1707318;83;21610;-80
2020/12/21 00:37:16;;;;;;;20.00;9.70;;;;;;;3.82;67.75;98280.86;1707511;83;21593;-79
2020/12/21 00:39:44;;;;;;;18.70;10.25;;;;;;;3.85;67.79;98281.23;1743047;82;21129;-80
2020/12/21 00:42:11;;;;;;;21.68;11.10;;;;;;;3.85;67.75;98283.84;1742753;82;21129;-79
2020/12/21 00:44:38;;;;;;;24.40;10.98;;;;;;;3.84;67.78;98282.12;1742891;81;21129;-79
2020/12/21 00:47:06;;;;;;;21.65;12.65;;;;;;;3.83;67.82;98284.34;1742770;82;21149;-78
2020/12/21 00:49:33;;;;;;;21.23;11.45;;;;;;;3.85;67.84;98282.06;1742986;82;21141;-79
2020/12/21 00:52:02;;;;;;;18.75;10.85;;;;;;;3.87;67.84;98282.00;1742843;82;21137;-78
2020/12/21 00:54:30;;;;;;;21.68;14.10;;;;;;;3.89;67.79;98281.50;1742919;82;21214;-79
2020/12/21 00:56:58;;;;;;;22.70;12.28;;;;;;;3.89;67.85;98281.50;1743039;82;21144;-78
2020/12/21 00:59:25;;;;;;;19.50;9.75;;;;;;;3.89;67.96;98282.38;1752807;81;21117;-78
2020/12/21 01:01:52;;;;;;;16.87;9.85;;;;;;;3.91;67.72;98282.31;1707416;84;21578;-79
2020/12/21 01:04:21;;;;;;;16.82;10.25;;;;;;;3.91;67.42;98281.02;1700150;84;21243;-79
2020/12/21 01:06:54;;;;;;;19.20;10.93;;;;;;;3.90;67.53;98279.30;1761147;81;21134;-79
2020/12/21 01:09:22;;;;;;;22.42;10.70;;;;;;;3.91;67.38;98279.23;1774571;81;21254;-80
2020/12/21 01:11:54;;;;;;;16.20;9.75;;;;;;;3.91;67.46;98280.55;1774535;81;21455;-81
2020/12/21 01:14:24;;;;;;;15.60;9.38;;;;;;;3.93;67.40;98273.13;1749853;81;21157;-78
2020/12/21 01:16:53;;;;;;;17.32;9.55;;;;;;;3.94;67.30;98275.70;1745915;81;21129;-79
2020/12/21 01:19:20;;;;;;;19.07;9.73;;;;;;;3.94;67.32;98269.61;1761501;81;21090;-80
2020/12/21 01:21:47;;;;;;;16.77;10.80;;;;;;;3.93;67.38;98268.77;1754347;81;21701;-80
2020/12/21 01:24:15;;;;;;;16.50;9.58;;;;;;;3.92;67.34;98272.28;1744189;82;21172;-80
2020/12/21 01:26:42;;;;;;;17.10;9.08;;;;;;;3.93;67.29;98273.13;1742944;82;21174;-79
2020/12/21 01:29:09;;;;;;;19.35;9.60;;;;;;;3.89;67.12;98271.94;1679287;85;21158;-80
2020/12/21 01:31:36;;;;;;;15.13;9.38;;;;;;;3.89;67.17;98268.03;1685367;84;21177;-80
2020/12/21 01:34:06;;;;;;;17.45;9.65;;;;;;;3.90;67.10;98270.17;1773359;81;21132;-80
2020/12/21 01:36:33;;;;;;;19.17;10.25;;;;;;;3.90;67.08;98274.92;1774132;81;21140;-79
2020/12/21 01:39:00;;;;;;;14.40;8.25;;;;;;;3.90;67.01;98272.78;1706677;84;21577;-80
2020/12/21 01:41:28;;;;;;;17.12;8.98;;;;;;;3.88;67.03;98272.84;1773161;81;21133;-80
2020/12/21 01:43:56;;;;;;;17.37;8.48;;;;;;;3.89;67.01;98274.55;1774414;81;21137;-79
2020/12/21 01:46:25;;;;;;;14.87;7.90;;;;;;;3.93;67.02;98272.69;1762669;81;21121;-80
2020/12/21 01:48:53;;;;;;;14.90;8.98;;;;;;;3.97;67.07;98261.22;1746139;82;21256;-81
2020/12/21 01:51:25;;;;;;;15.65;8.98;;;;;;;4.01;66.85;98264.57;1745781;82;21129;-79
2020/12/21 01:53:54;;;;;;;12.18;7.67;;;;;;;4.06;66.97;98263.97;1745083;82;21286;-80
2020/12/21 01:56:23;;;;;;;15.23;7.15;;;;;;;4.06;67.00;98266.12;1745791;82;21129;-80
2020/12/21 01:58:51;;;;;;;12.65;6.90;;;;;;;4.11;67.02;98264.65;1744287;81;21129;-79
2020/12/21 02:01:19;;;;;;;12.68;7.08;;;;;;;4.22;66.88;98270.81;1743436;82;21542;-79
2020/12/21 02:03:49;;;;;;;13.88;7.55;;;;;;;4.32;66.74;98266.94;1744091;82;21347;-80
2020/12/21 02:06:19;;;;;;;12.60;7.28;;;;;;;4.42;66.61;98274.44;1679972;85;21186;-81
2020/12/21 02:08:47;;;;;;;12.82;7.70;;;;;;;4.43;66.30;98269.61;1663328;85;21165;-79
2020/12/21 02:11:14;;;;;;;13.98;7.97;;;;;;;4.42;66.27;98273.13;1744092;82;21132;-80
2020/12/21 02:13:42;;;;;;;12.13;7.87;;;;;;;4.48;66.23;98272.45;1744519;82;21566;-80
2020/12/21 02:16:15;;;;;;;13.90;8.90;;;;;;;4.44;65.71;98278.72;1747171;81;21134;-80
2020/12/21 02:18:40;;;;;;;13.03;7.95;;;;;;;4.41;65.81;98280.59;1745608;81;21271;-81
2020/12/21 02:21:08;;;;;;;13.83;8.38;;;;;;;4.36;65.81;98278.98;1742845;81;21149;-78
2020/12/21 02:23:36;;;;;;;13.45;8.58;;;;;;;4.38;65.70;98278.48;1752484;81;21153;-80
2020/12/21 02:26:05;;;;;;;15.13;8.53;;;;;;;4.30;65.38;98277.91;1760132;81;21136;-79
2020/12/21 02:28:33;;;;;;;13.68;8.50;;;;;;;4.27;65.51;98280.63;1760292;81;21145;-80
2020/12/21 02:31:00;;;;;;;16.17;8.13;;;;;;;4.24;65.51;98278.11;1760319;81;21133;-80
2020/12/21 02:33:27;;;;;;;15.38;8.95;;;;;;;4.16;65.60;98276.23;1760086;81;21163;-80
2020/12/21 02:35:54;;;;;;;13.72;8.35;;;;;;;4.12;65.69;98278.56;1759743;81;21129;-80
2020/12/21 02:38:22;;;;;;;17.40;9.58;;;;;;;4.03;65.67;98281.91;1759921;81;21180;-81
2020/12/21 02:40:49;;;;;;;16.62;8.98;;;;;;;3.96;65.81;98284.77;1759911;81;21160;-81
2020/12/21 02:43:22;;;;;;;16.40;9.15;;;;;;;3.94;65.90;98282.22;1744487;81;21129;-78
2020/12/21 02:45:50;;;;;;;16.12;9.85;;;;;;;3.92;66.06;98284.02;1739619;82;21160;-78
2020/12/21 02:48:18;;;;;;;17.45;8.98;;;;;;;3.91;66.07;98277.94;1664225;85;21165;-80
2020/12/21 02:50:46;;;;;;;17.98;10.13;;;;;;;3.91;66.20;98281.02;1744112;81;21156;-80
2020/12/21 02:53:17;;;;;;;16.52;8.90;;;;;;;3.88;66.25;98279.36;1759863;81;21565;-81
2020/12/21 02:55:46;;;;;;;16.97;9.58;;;;;;;3.87;66.34;98276.35;1759600;81;21148;-80
2020/12/21 02:58:14;;;;;;;15.63;9.35;;;;;;;3.87;66.39;98280.70;1745200;81;21137;-79
2020/12/21 03:00:43;;;;;;;18.85;12.05;;;;;;;3.86;66.52;98276.38;1757657;81;21156;-80
2020/12/21 03:03:13;;;;;;;18.10;10.08;;;;;;;3.86;66.59;98278.99;1741045;81;21156;-80
2020/12/21 03:05:42;;;;;;;19.92;10.90;;;;;;;3.83;66.63;98279.12;1739882;81;21153;-79
2020/12/21 03:08:11;;;;;;;17.40;9.63;;;;;;;3.82;66.71;98274.80;1751219;81;21149;-81
2020/12/21 03:10:39;;;;;;;17.32;10.50;;;;;;;3.80;66.72;98276.60;1665316;85;21172;-81
2020/12/21 03:13:07;;;;;;;17.32;9.18;;;;;;;3.77;66.72;98271.48;1745478;81;21148;-81
2020/12/21 03:15:36;;;;;;;18.52;10.20;;;;;;;3.74;66.79;98275.92;1741703;81;21125;-80
2020/12/21 03:18:03;;;;;;;17.00;9.58;;;;;;;3.72;66.80;98273.81;1739595;81;21144;-81
2020/12/21 03:20:32;;;;;;;19.35;10.15;;;;;;;3.71;66.88;98265.58;1665051;85;21137;-78
2020/12/21 03:22:59;;;;;;;14.33;8.58;;;;;;;3.71;66.81;98270.80;1767510;81;21144;-80
2020/12/21 03:25:26;;;;;;;17.60;9.98;;;;;;;3.69;66.93;98268.69;1750229;81;21145;-81
2020/12/21 03:27:54;;;;;;;17.52;10.10;;;;;;;3.72;66.96;98264.69;1746158;81;21315;-80
2020/12/21 03:30:21;;;;;;;19.27;10.45;;;;;;;3.74;66.96;98273.31;1745863;81;21137;-80
2020/12/21 03:32:50;;;;;;;17.62;10.23;;;;;;;3.74;66.95;98272.01;1745489;81;21310;-80
2020/12/21 03:35:19;;;;;;;18.85;10.13;;;;;;;3.75;67.00;98270.23;1745362;81;21137;-80
2020/12/21 03:37:46;;;;;;;18.37;10.93;;;;;;;3.74;67.02;98270.70;1745881;82;21291;-82
2020/12/21 03:40:13;;;;;;;17.07;10.60;;;;;;;3.74;67.09;98264.62;1745924;81;21959;-80
2020/12/21 03:42:42;;;;;;;15.63;9.93;;;;;;;3.77;67.07;98274.09;1744625;82;21149;-80
2020/12/21 03:45:09;;;;;;;13.80;8.48;;;;;;;3.79;67.06;98270.55;1745781;82;21240;-78
2020/12/21 03:47:36;;;;;;;16.77;9.88;;;;;;;3.75;66.98;98273.72;1765209;81;21168;-80
2020/12/21 03:50:05;;;;;;;16.73;9.30;;;;;;;3.76;66.86;98268.03;1774281;81;21138;-79
2020/12/21 03:52:32;;;;;;;17.05;9.90;;;;;;;3.75;66.89;98271.11;1773946;81;21137;-80
2020/12/21 03:55:00;;;;;;;21.80;8.83;;;;;;;3.75;66.80;98269.80;1707484;84;21653;-80
2020/12/21 03:57:27;;;;;;;17.90;10.23;;;;;;;3.72;66.86;98271.20;1707990;84;21153;-81
2020/12/21 03:59:54;;;;;;;15.88;8.38;;;;;;;3.73;66.88;98265.52;1774355;80;21144;-79
2020/12/21 04:02:22;;;;;;;15.55;8.85;;;;;;;3.73;66.78;98269.43;1758262;81;21177;-82
2020/12/21 04:04:49;;;;;;;12.35;7.95;;;;;;;3.74;66.73;98270.70;1687746;84;21166;-79
2020/12/21 04:07:17;;;;;;;17.07;8.63;;;;;;;3.73;66.61;98265.09;1682902;85;21161;-79
2020/12/21 04:09:44;;;;;;;14.35;8.68;;;;;;;3.73;66.69;98269.43;1770408;81;21136;-81
2020/12/21 04:12:11;;;;;;;12.18;7.62;;;;;;;3.74;66.65;98272.01;1744294;81;21159;-80
2020/12/21 04:14:38;;;;;;;14.68;7.83;;;;;;;3.74;66.53;98268.53;1743762;82;21168;-80
2020/12/21 04:17:06;;;;;;;15.20;8.23;;;;;;;3.69;66.46;98267.84;1743888;82;21121;-82
2020/12/21 04:19:33;;;;;;;15.35;8.88;;;;;;;3.67;66.51;98273.56;1743852;82;21196;-80
2020/12/21 04:22:00;;;;;;;12.88;7.72;;;;;;;3.64;66.50;98272.34;1742705;81;21165;-79
2020/12/21 04:24:29;;;;;;;13.45;8.05;;;;;;;3.61;66.27;98273.77;1739679;82;21169;-81
2020/12/21 04:26:56;;;;;;;14.80;9.10;;;;;;;3.59;66.34;98269.46;1753835;81;21186;-80
2020/12/21 04:29:23;;;;;;;16.25;8.50;;;;;;;3.59;66.54;98270.77;1759478;81;21546;-79
2020/12/21 04:31:55;;;;;;;15.32;7.85;;;;;;;3.59;66.59;98265.55;1759252;81;21121;-79
2020/12/21 04:34:26;;;;;;;18.57;8.25;;;;;;;3.64;66.67;98267.13;1739907;81;21168;-80
2020/12/21 04:36:54;;;;;;;18.15;7.95;;;;;;;3.66;66.75;98268.81;1667824;85;21177;-80
2020/12/21 04:39:22;;;;;;;17.07;8.00;;;;;;;3.70;66.65;98266.48;1691376;85;21161;-79
2020/12/21 04:41:58;;;;;;;13.78;8.25;;;;;;;3.75;67.12;98265.02;1739280;82;21153;-80
2020/12/21 04:44:27;;;;;;;14.20;7.70;;;;;;;3.80;66.88;98264.44;1757241;81;21622;-78
2020/12/21 04:46:56;;;;;;;18.17;8.28;;;;;;;3.83;66.64;98265.61;1691911;84;21165;-80
2020/12/21 04:49:25;;;;;;;14.13;8.15;;;;;;;3.88;66.82;98258.93;1768328;81;21572;-79
2020/12/21 04:51:52;;;;;;;15.03;8.28;;;;;;;3.95;66.79;98255.66;1751651;81;21166;-80
2020/12/21 04:54:21;;;;;;;15.20;7.75;;;;;;;4.04;66.68;98254.03;1739434;81;21117;-80
2020/12/21 04:56:48;;;;;;;16.93;7.97;;;;;;;4.04;66.45;98252.73;1739054;82;21180;-79
2020/12/21 04:59:16;;;;;;;15.28;8.63;;;;;;;4.11;66.36;98250.30;1739300;82;21149;-80
2020/12/21 05:01:44;;;;;;;14.28;8.20;;;;;;;4.17;66.08;98251.84;1740521;81;21102;-80
2020/12/21 05:04:14;;;;;;;15.20;8.00;;;;;;;4.13;65.86;98252.41;1738835;82;21165;-79
2020/12/21 05:06:54;;;;;;;15.28;8.10;;;;;;;4.12;65.79;98257.69;1738919;82;21145;-79
2020/12/21 05:09:24;;;;;;;13.53;8.55;;;;;;;4.11;65.59;98252.91;1749556;81;21128;-78
2020/12/21 05:12:06;;;;;;;13.85;9.30;;;;;;;4.06;65.63;98256.14;1742026;81;21145;-79
2020/12/21 05:14:37;;;;;;;14.28;8.33;;;;;;;4.03;65.58;98253.20;1739316;82;21118;-80
2020/12/21 05:17:18;;;;;;;14.78;9.45;;;;;;;3.98;65.63;98255.09;1740251;81;21156;-80
2020/12/21 05:19:45;;;;;;;16.15;8.75;;;;;;;3.92;65.62;98259.23;1739002;82;21156;-80
2020/12/21 05:22:17;;;;;;;13.95;8.25;;;;;;;3.88;65.68;98260.23;1734265;82;21594;-80
2020/12/21 05:24:45;;;;;;;14.05;8.40;;;;;;;3.85;65.66;98264.27;1724072;83;21152;-80
2020/12/21 05:27:18;;;;;;;12.82;7.65;;;;;;;3.81;65.66;98260.05;1726723;82;21273;-80
2020/12/21 05:29:56;;;;;;;16.23;8.35;;;;;;;3.77;65.73;98255.40;1736551;82;21161;-81
2020/12/21 05:32:23;;;;;;;14.15;8.60;;;;;;;3.73;65.86;98257.26;1729779;82;21133;-80
2020/12/21 05:34:51;;;;;;;13.72;8.00;;;;;;;3.69;65.89;98256.95;1725179;82;21692;-79
2020/12/21 05:37:21;;;;;;;15.65;8.35;;;;;;;3.67;65.96;98262.66;1748537;82;21152;-80
2020/12/21 05:39:55;;;;;;;15.05;8.10;;;;;;;3.66;66.04;98262.30;1748640;82;21193;-80
2020/12/21 05:42:24;;;;;;;12.78;8.30;;;;;;;3.66;66.05;98263.59;1740674;82;21113;-82
2020/12/21 05:44:58;;;;;;;13.03;8.38;;;;;;;3.64;66.14;98260.61;1742509;82;21535;-79
2020/12/21 05:47:27;;;;;;;19.37;10.18;;;;;;;3.61;66.10;98258.97;1742855;82;21128;-80
2020/12/21 05:50:04;;;;;;;13.45;8.05;;;;;;;3.60;66.19;98258.56;1723519;83;21577;-78
2020/12/21 05:52:38;;;;;;;13.83;8.90;;;;;;;3.59;66.33;98262.94;1723895;83;21169;-78
2020/12/21 05:55:10;;;;;;;17.42;10.25;;;;;;;3.59;67.12;98260.34;1723532;83;21704;-80
2020/12/21 05:57:39;;;;;;;16.60;8.88;;;;;;;3.61;67.26;98259.44;1744121;82;21140;-81
2020/12/21 06:00:14;;;;;;;17.62;10.15;;;;;;;3.64;67.37;98261.92;1746427;82;21668;-80
2020/12/21 06:02:42;;;;;;;17.98;9.30;;;;;;;3.67;68.02;98256.61;1744402;82;21156;-80
2020/12/21 06:05:12;;;;;;;18.67;9.90;;;;;;;3.69;67.62;98262.17;1747089;82;21161;-79
2020/12/21 06:07:46;;;;;;;16.00;8.68;;;;;;;3.69;67.16;98262.63;1740049;82;21306;-81
2020/12/21 06:10:14;;;;;;;17.67;9.63;;;;;;;3.68;67.02;98265.67;1723334;82;21295;-81
2020/12/21 06:12:50;;;;;;;15.38;9.08;;;;;;;3.67;66.87;98269.18;1742781;82;21145;-79
2020/12/21 06:15:25;;;;;;;11.83;7.55;;;;;;;3.68;66.74;98269.59;1729483;82;21267;-81
2020/12/21 06:17:53;;;;;;;14.47;8.53;;;;;;;3.67;66.65;98267.88;1746911;82;21247;-81
2020/12/21 06:20:22;;;;;;;12.73;8.30;;;;;;;3.62;66.71;98267.66;1730235;82;21258;-80
2020/12/21 06:22:51;;;;;;;21.60;9.95;;;;;;;3.62;66.72;98275.02;1735155;81;21230;-78
2020/12/21 06:25:24;;;;;;;16.32;9.48;;;;;;;3.62;66.63;98274.18;1749453;82;21314;-79
2020/12/21 06:27:55;;;;;;;18.70;8.43;;;;;;;3.62;66.64;98273.71;1750362;82;21717;-79
2020/12/21 06:30:30;;;;;;;15.03;8.50;;;;;;;3.59;66.73;98278.59;1750380;82;21105;-79
2020/12/21 06:33:03;;;;;;;15.98;9.00;;;;;;;3.55;66.44;98278.73;1713997;84;21199;-78
2020/12/21 06:35:42;;;;;;;11.63;5.30;;;;;;;3.42;66.19;98279.13;1690961;84;21145;-78
2020/12/21 06:38:10;;;;;;;15.23;8.40;;;;;;;3.34;66.55;98277.22;1781120;80;21222;-77
2020/12/21 06:40:38;;;;;;;18.15;7.10;;;;;;;3.20;66.17;98280.73;1762458;80;21134;-78
2020/12/21 06:43:14;;;;;;;12.28;7.45;;;;;;;3.19;66.63;98290.75;1757059;80;21298;-78
2020/12/21 06:45:44;;;;;;;13.13;7.75;;;;;;;3.16;65.88;98289.53;1749988;81;21649;-79
2020/12/21 06:48:22;;;;;;;11.63;7.92;;;;;;;3.10;66.18;98289.27;1767543;80;21125;-77
2020/12/21 06:50:50;;;;;;;15.95;8.08;;;;;;;3.04;66.39;98286.40;1775013;80;21287;-77
2020/12/21 06:53:18;;;;;;;14.47;9.18;;;;;;;2.94;66.38;98294.96;1709674;84;21526;-77
2020/12/21 06:55:46;;;;;;;15.38;7.80;;;;;;;2.83;66.58;98291.81;1708103;84;21201;-78
2020/12/21 06:58:15;;;;;;;11.05;7.20;;;;;;;2.81;66.67;98298.38;1744148;82;21160;-77
2020/12/21 07:00:43;;;;;;;18.70;8.70;;;;;;;2.74;66.76;98299.44;1714519;84;21193;-82
2020/12/21 07:03:10;;;;;;;10.43;5.78;;;;;;;2.70;66.80;98296.53;1714862;83;21219;-80
2020/12/21 07:05:38;;;;;;;15.23;8.55;;;;;;;2.65;66.79;98291.89;1782116;80;21133;-81
2020/12/21 07:08:07;;;;;;;13.98;8.98;;;;;;;2.53;67.27;98293.11;1693178;84;21140;-81
2020/12/21 07:10:34;;;;;;;17.67;8.45;;;;;;;2.57;67.53;98290.84;1780605;80;21599;-80
2020/12/21 07:13:01;;;;;;;12.80;7.67;;;;;;;2.64;67.55;98291.52;1782104;80;21161;-79
2020/12/21 07:15:30;;;;;;;14.18;8.13;;;;;;;2.74;67.36;98297.30;1759882;80;21301;-79
2020/12/21 07:17:58;;;;;;;13.25;8.18;;;;;;;2.77;67.49;98305.03;1750553;82;21292;-78
2020/12/21 07:20:25;;;;;;;13.00;8.58;;;;;;;2.77;67.32;98305.03;1750424;80;21136;-79
2020/12/21 07:22:53;;;;;;;12.70;7.80;;;;;;;2.71;67.23;98302.16;1752780;80;21249;-80
2020/12/21 07:25:23;;;;;;;18.40;9.48;;;;;;;2.72;67.20;98307.77;1743925;81;21171;-80
2020/12/21 07:27:49;;;;;;;14.35;9.00;;;;;;;2.68;67.17;98308.73;1758980;81;21578;-78
2020/12/21 07:30:18;;;;;;;14.38;6.33;;;;;;;2.70;66.96;98312.16;1749661;81;21129;-81
2020/12/21 07:32:45;;;;;;;18.82;9.20;;;;;;;2.64;66.99;98305.38;1722130;81;21153;-78
2020/12/21 07:35:13;;;;;;;17.80;9.18;;;;;;;2.61;67.37;98309.82;1745850;81;21142;-79
2020/12/21 07:37:42;;;;;;;11.15;5.95;;;;;;;2.67;67.29;98312.23;1734417;81;21172;-78
2020/12/21 07:40:20;;;;;;;13.15;8.50;;;;;;;2.75;67.37;98310.72;1744353;81;21220;-80
2020/12/21 07:42:52;;;;;;;20.02;9.95;;;;;;;2.66;66.84;98311.83;1751295;81;21113;-81
2020/12/21 07:45:23;;;;;;;16.10;9.83;;;;;;;2.64;66.98;98307.14;1741848;81;21145;-81
2020/12/21 07:47:51;;;;;;;13.72;8.70;;;;;;;2.63;67.09;98306.73;1743784;81;21227;-80
2020/12/21 07:50:18;;;;;;;13.85;8.30;;;;;;;2.68;67.06;98304.83;1759746;81;21616;-79
2020/12/21 07:52:46;;;;;;;14.18;9.03;;;;;;;2.70;66.82;98304.78;1750055;81;21577;-80
2020/12/21 07:55:14;;;;;;;14.33;8.73;;;;;;;2.71;67.06;98303.45;1739075;82;21165;-81
2020/12/21 07:57:43;;;;;;;14.20;7.90;;;;;;;2.78;66.58;98304.97;1747519;81;21282;-79
2020/12/21 08:00:12;;;;;;;13.18;7.40;;;;;;;2.73;66.24;98308.17;1739753;82;21463;-79
2020/12/21 08:02:43;;;;;;;10.75;6.33;;;;;;;2.64;66.44;98302.77;1745657;81;21115;-80
2020/12/21 08:05:19;;;;;;;12.53;6.85;;;;;;;2.67;66.51;98308.80;1747271;81;21165;-79
2020/12/21 08:07:47;;;;;;;10.43;4.65;;;;;;;2.68;66.41;98308.73;1676637;85;21350;-78
2020/12/21 08:10:20;;;;;;;16.90;7.17;;;;;;;2.63;66.13;98304.13;1756299;81;21155;-78
2020/12/21 08:12:47;;;;;;;12.05;6.10;;;;;;;2.60;66.37;98306.81;1690425;84;21197;-77
2020/12/21 08:15:20;;;;;;;9.68;6.65;;;;;;;2.71;66.32;98314.30;1737831;82;21614;-78
2020/12/21 08:17:47;;;;;;;12.30;8.05;;;;;;;2.73;66.42;98313.81;1741423;81;21113;-78
2020/12/21 08:20:15;;;;;;;12.53;6.80;;;;;;;2.67;65.82;98316.14;1737948;82;21149;-78
2020/12/21 08:22:43;;;;;;;13.18;7.92;;;;;;;2.68;65.78;98310.05;1738319;82;21153;-77
2020/12/21 08:25:14;;;;;;;13.50;6.28;;;;;;;2.67;65.66;98314.00;1740507;81;21381;-79
2020/12/21 08:27:50;;;;;;;13.05;8.48;;;;;;;2.72;65.77;98315.58;1744772;82;21300;-77
2020/12/21 08:30:21;;;;;;;14.80;7.72;;;;;;;2.69;65.37;98323.93;1742401;82;21565;-76
2020/12/21 08:32:55;;;;;;;;;;;;;;;2.68;65.65;98319.16;1747468;82;21113;-77
2020/12/21 08:35:27;;;;;;;12.20;7.65;;;;;;;2.67;65.44;98313.53;1750455;81;20414;-78
2020/12/21 08:38:17;;;;;;;15.55;8.60;;;;;;;2.68;65.42;98314.41;1743645;81;21138;-77
2020/12/21 08:40:57;;;;;;;8.78;5.53;;;;;;;2.63;65.42;98318.45;1644808;86;21249;-78
2020/12/21 08:43:36;;;;;;;17.00;7.65;;;;;;;2.70;65.37;98321.27;1823979;77;24289;-79
2020/12/21 08:46:09;;;;;;;14.58;7.97;;;;;;;2.63;65.50;98315.38;1801332;78;21552;-81
2020/12/21 08:48:38;;;;;;;11.00;5.83;;;;;;;2.60;65.57;98321.97;1801489;78;21175;-79
2020/12/21 08:51:07;;;;;;;18.55;9.55;;;;;;;2.59;65.75;98320.29;1801489;78;21155;-80
2020/12/21 08:53:36;;;;;;;14.43;7.55;;;;;;;2.61;65.64;98320.23;1800505;78;21150;-78
2020/12/21 08:56:11;;;;;;;15.20;6.90;;;;;;;2.67;65.63;98322.66;1801438;79;21167;-80
2020/12/21 08:58:39;;;;;;;19.17;8.08;;;;;;;2.72;65.34;98328.59;1801152;79;21124;-77
2020/12/21 09:01:08;;;;;;;12.13;7.72;;;;;;;2.68;64.96;98326.97;1800097;78;21135;-79
2020/12/21 09:03:36;;;;;;;14.47;7.53;;;;;;;2.72;65.52;98322.52;1810886;78;21142;-78
2020/12/21 09:06:03;;;;;;;15.63;7.80;;;;;;;2.74;65.32;98314.22;1807594;79;21150;-79
2020/12/21 09:08:31;;;;;;;14.93;7.75;;;;;;;2.69;65.12;98309.14;1815354;78;21544;-79
2020/12/21 09:10:58;;;;;;;14.03;8.03;;;;;;;2.64;65.11;98308.44;1815692;78;21144;-80
2020/12/21 09:13:25;;;;;;;19.85;8.23;;;;;;;2.68;65.47;98308.73;1827332;78;21142;-78
2020/12/21 09:15:53;;;;;;;9.53;6.05;;;;;;;2.70;65.37;98306.08;1828073;78;21135;-81
2020/12/21 09:18:20;;;;;;;17.82;8.63;;;;;;;2.69;65.37;98303.94;1813271;78;21647;-79
2020/12/21 09:20:48;;;;;;;21.80;10.28;;;;;;;2.70;65.96;98309.55;1801219;79;21116;-78
2020/12/21 09:23:15;;;;;;;9.95;5.53;;;;;;;2.76;66.34;98302.02;1800598;79;21139;-77
2020/12/21 09:25:42;;;;;;;18.57;9.38;;;;;;;2.91;66.37;98305.92;1805597;78;21136;-78
2020/12/21 09:28:10;;;;;;;21.05;10.78;;;;;;;2.93;66.05;98304.97;1815898;78;21128;-78
2020/12/21 09:30:37;;;;;;;14.90;7.83;;;;;;;3.05;66.21;98299.83;1803887;78;21127;-81
2020/12/21 09:33:05;;;;;;;18.62;9.38;;;;;;;3.17;65.65;98300.36;1795205;78;21533;-79
2020/12/21 09:35:32;;;;;;;11.25;6.45;;;;;;;3.13;64.83;98300.45;1779060;78;21146;-79
2020/12/21 09:38:00;;;;;;;14.15;7.30;;;;;;;3.03;64.04;98299.02;1800588;78;21132;-79
2020/12/21 09:40:29;;;;;;;10.68;6.70;;;;;;;3.06;64.95;98295.49;1801900;78;21111;-78
2020/12/21 09:42:57;;;;;;;12.33;7.45;;;;;;;3.06;64.29;98311.96;1806109;78;21142;-77
2020/12/21 09:45:25;;;;;;;14.28;5.62;;;;;;;3.01;64.54;98309.09;1794686;80;21175;-77
2020/12/21 09:47:53;;;;;;;9.38;4.45;;;;;;;3.04;64.09;98298.59;1796445;78;21162;-79
2020/12/21 09:50:21;;;;;;;13.80;8.40;;;;;;;2.81;64.07;98302.72;1797641;78;21154;-76
2020/12/21 09:52:51;;;;;;;13.95;6.97;;;;;;;2.61;64.58;98297.64;1738572;81;21298;-78
2020/12/21 09:55:18;;;;;;;10.40;6.00;;;;;;;2.61;65.16;98297.64;1759763;80;21190;-79
2020/12/21 09:57:45;;;;;;;13.88;8.70;;;;;;;2.63;65.27;98298.92;1763357;81;21285;-78
2020/12/21 10:00:13;;;;;;;13.32;8.18;;;;;;;2.67;65.57;98295.31;1763287;80;21133;-78
2020/12/21 10:02:44;;;;;;;15.90;8.65;;;;;;;2.75;65.53;98294.64;1749099;81;21139;-80
2020/12/21 10:05:11;;;;;;;20.35;10.08;;;;;;;2.81;65.61;98302.29;1758696;80;21098;-81
2020/12/21 10:07:38;;;;;;;19.65;9.03;;;;;;;2.89;65.39;98297.30;1757932;81;21140;-80
2020/12/21 10:10:06;;;;;;;14.03;8.53;;;;;;;2.93;64.98;98289.77;1769574;80;21333;-80
2020/12/21 10:12:34;;;;;;;12.05;7.03;;;;;;;2.95;64.83;98293.19;1751476;82;21147;-78
2020/12/21 10:15:02;;;;;;;18.80;8.68;;;;;;;2.98;64.96;98295.72;1722174;81;21278;-80
2020/12/21 10:17:30;;;;;;;17.27;8.73;;;;;;;3.00;64.87;98290.02;1756762;80;21133;-80
2020/12/21 10:19:57;;;;;;;10.00;5.97;;;;;;;3.01;64.95;98285.21;1787754;80;21309;-82
2020/12/21 10:22:25;;;;;;;13.22;6.55;;;;;;;3.08;64.50;98288.45;1786050;80;21164;-82
2020/12/21 10:24:52;;;;;;;10.68;6.47;;;;;;;3.04;64.70;98292.08;1763014;80;21222;-81
2020/12/21 10:27:19;;;;;;;11.12;6.08;;;;;;;2.98;64.51;98294.41;1761083;80;21301;-83
2020/12/21 10:29:49;;;;;;;15.93;8.45;;;;;;;2.99;64.72;98283.53;1746131;81;21140;-83
2020/12/21 10:32:17;;;;;;;14.87;7.95;;;;;;;2.97;64.97;98279.22;1762702;81;21417;-83
2020/12/21 10:34:44;;;;;;;16.60;8.38;;;;;;;3.05;64.56;98292.02;1743662;81;21112;-82
2020/12/21 10:37:11;;;;;;;14.40;7.87;;;;;;;3.11;64.97;98287.91;1750084;81;21128;-82
2020/12/21 10:39:41;;;;;;;14.00;8.25;;;;;;;3.18;64.49;98283.83;1741242;81;21180;-81
2020/12/21 10:42:08;;;;;;;8.48;5.22;;;;;;;3.21;64.61;98280.67;1753758;81;21132;-81
2020/12/21 10:44:36;;;;;;;12.18;6.50;;;;;;;3.26;64.22;98275.31;1750171;81;21325;-84
2020/12/21 10:47:05;;;;;;;15.95;8.95;;;;;;;3.18;63.95;98274.25;1743740;82;21195;-82
2020/12/21 10:49:32;;;;;;;14.47;9.80;;;;;;;3.15;64.35;98269.16;1743067;81;21144;-83
2020/12/21 10:52:02;;;;;;;15.60;9.55;;;;;;;3.18;64.32;98272.11;1738816;81;21131;-79
2020/12/21 10:54:30;;;;;;;14.25;9.78;;;;;;;3.21;64.42;98262.86;1742293;82;21119;-83
2020/12/21 10:56:57;;;;;;;13.78;8.43;;;;;;;3.22;64.30;98264.14;1741149;81;21141;-83
2020/12/21 10:59:24;;;;;;;13.08;8.73;;;;;;;3.25;64.21;98271.00;1734757;81;21116;-80
2020/12/21 11:01:51;;;;;;;13.88;9.08;;;;;;;3.23;64.18;98264.98;1743803;81;21534;-83
2020/12/21 11:04:25;;;;;;;14.90;8.13;;;;;;;3.24;64.50;98265.38;1766897;81;21104;-83
2020/12/21 11:07:01;;;;;;;15.93;9.10;;;;;;;3.12;64.07;98273.98;1742057;81;21227;-84
2020/12/21 11:09:34;;;;;;;12.20;6.67;;;;;;;3.06;64.55;98268.98;1716104;84;21318;-82
2020/12/21 11:12:01;;;;;;;16.67;7.78;;;;;;;3.13;64.43;98267.88;1716263;82;21242;-83
2020/12/21 11:14:29;;;;;;;12.05;7.35;;;;;;;3.07;64.30;98263.30;1753415;81;21242;-85
2020/12/21 11:16:57;;;;;;;12.50;7.30;;;;;;;3.11;64.80;98261.85;1733784;82;21108;-83
2020/12/21 11:19:26;;;;;;;11.88;6.55;;;;;;;3.09;64.51;98261.08;1726129;83;21276;-81
2020/12/21 11:21:53;;;;;;;11.40;7.70;;;;;;;3.11;64.78;98259.25;1738945;82;21190;-78
2020/12/21 11:24:20;;;;;;;11.00;7.00;;;;;;;3.12;64.70;98257.52;1733164;82;21191;-84
2020/12/21 11:26:52;;;;;;;16.97;9.78;;;;;;;3.18;64.74;98261.69;1743444;81;21188;-82
2020/12/21 11:29:20;;;;;;;15.38;8.38;;;;;;;3.21;64.74;98254.61;1750560;82;21127;-80
2020/12/21 11:31:47;;;;;;;15.63;7.78;;;;;;;3.27;64.17;98254.41;1752890;81;21132;-81
2020/12/21 11:34:14;;;;;;;12.47;6.53;;;;;;;3.32;64.42;98253.42;1748903;81;21154;-80
2020/12/21 11:36:45;;;;;;;13.30;8.18;;;;;;;3.33;64.12;98252.06;1750747;82;21136;-81
2020/12/21 11:39:13;;;;;;;13.65;7.60;;;;;;;3.29;64.38;98245.26;1744053;82;21318;-81